Time;durP1;ratioP1;P1;durP2;ratioP2;P2;SDS_P1;SDS_P2;PMS_P1;PMS_P2;Temp;Humidity;BMP_temperature;BMP_pressure;BME280_temperature;BME280_humidity;BME280_pressure;Samples;Min_cycle;Max_cycle;Signal;HPM_P1;HPM_P2
2022/10/23 00:01:21;;;;;;;23.70;16.05;;;;;;;12.87;80.56;100226.13;4453527;32;33508;-73
2022/10/23 00:03:51;;;;;;;23.08;15.32;;;;;;;12.91;80.48;100235.44;4453898;32;34738;-74
2022/10/23 00:06:18;;;;;;;24.75;16.20;;;;;;;12.57;81.62;100239.28;4453810;32;35207;-75
2022/10/23 00:08:46;;;;;;;25.00;16.62;;;;;;;11.88;84.59;100238.50;4457921;32;34401;-74
2022/10/23 00:11:18;;;;;;;26.05;16.52;;;;;;;12.23;83.61;100236.63;4468886;32;34532;-74
2022/10/23 00:13:45;;;;;;;24.63;16.23;;;;;;;12.34;83.15;100243.87;4469568;32;33744;-74
2022/10/23 00:16:13;;;;;;;26.50;16.55;;;;;;;11.97;84.43;100249.78;4469419;32;33872;-74
2022/10/23 00:18:41;;;;;;;24.73;17.12;;;;;;;11.95;84.37;100249.22;4469222;32;33795;-73
2022/10/23 00:21:10;;;;;;;23.80;16.15;;;;;;;11.86;85.71;100258.81;4469346;32;33069;-73
2022/10/23 00:23:39;;;;;;;27.70;18.08;;;;;;;12.19;84.61;100257.22;4467762;32;34516;-74
2022/10/23 00:26:07;;;;;;;25.77;16.10;;;;;;;12.08;85.06;100261.69;4469412;32;34031;-75
2022/10/23 00:28:34;;;;;;;27.45;15.60;;;;;;;12.25;83.74;100254.34;4455525;32;34625;-74
2022/10/23 00:31:03;;;;;;;24.33;16.62;;;;;;;12.27;82.74;100259.53;4468880;32;33215;-73
2022/10/23 00:33:32;;;;;;;22.58;14.80;;;;;;;12.51;80.96;100261.00;4469465;32;33889;-73
2022/10/23 00:35:59;;;;;;;25.17;15.95;;;;;;;12.63;80.28;100265.53;4469500;32;33963;-73
2022/10/23 00:38:27;;;;;;;24.27;15.90;;;;;;;12.34;81.59;100265.62;4468259;32;34000;-74
2022/10/23 00:40:54;;;;;;;26.02;16.33;;;;;;;12.55;79.58;100276.81;4469140;32;34358;-73
2022/10/23 00:43:24;;;;;;;27.27;17.17;;;;;;;12.50;79.02;100274.84;4469587;32;34826;-73
2022/10/23 00:45:52;;;;;;;22.98;16.17;;;;;;;12.41;78.72;100282.59;4469259;32;34983;-74
2022/10/23 00:48:19;;;;;;;22.60;16.27;;;;;;;12.37;78.71;100283.34;4468908;32;34047;-74
2022/10/23 00:50:47;;;;;;;26.60;16.70;;;;;;;12.27;79.04;100293.00;4454223;32;34298;-73
2022/10/23 00:53:16;;;;;;;25.55;16.95;;;;;;;12.34;78.70;100294.75;4454815;32;33989;-74
2022/10/23 00:55:45;;;;;;;26.37;17.27;;;;;;;11.87;80.98;100296.62;4455477;32;34157;-73
2022/10/23 00:58:14;;;;;;;21.67;15.75;;;;;;;12.45;78.15;100299.28;4455188;32;33878;-73
2022/10/23 01:00:54;;;;;;;21.67;14.50;;;;;;;11.96;79.79;100309.84;4468811;32;33575;-74
2022/10/23 01:03:24;;;;;;;22.17;15.32;;;;;;;12.05;79.23;100303.78;4469424;32;34149;-73
2022/10/23 01:06:07;;;;;;;20.77;14.90;;;;;;;12.08;78.58;100310.63;4454670;32;34826;-74
2022/10/23 01:08:53;;;;;;;21.95;14.55;;;;;;;12.31;77.00;100317.84;4445601;32;34601;-73
2022/10/23 01:11:34;;;;;;;20.70;14.10;;;;;;;12.05;77.48;100316.53;4453383;32;33713;-74
2022/10/23 01:14:24;;;;;;;19.50;13.80;;;;;;;12.16;76.57;100323.00;4439671;32;33732;-73
2022/10/23 01:17:14;;;;;;;22.05;14.57;;;;;;;12.10;76.50;100322.09;4439605;32;35019;-74
2022/10/23 01:19:50;;;;;;;21.62;15.30;;;;;;;12.18;75.62;100324.41;4453222;32;34548;-73
2022/10/23 01:22:43;;;;;;;19.27;13.50;;;;;;;11.99;75.98;100320.28;4453156;32;34274;-73
2022/10/23 01:25:19;;;;;;;19.87;14.70;;;;;;;12.04;76.19;100320.34;4453304;32;33678;-73
2022/10/23 01:27:51;;;;;;;20.77;14.75;;;;;;;12.07;75.95;100326.13;4453579;32;35074;-72
2022/10/23 01:30:19;;;;;;;22.00;14.90;;;;;;;12.11;75.86;100326.44;4426925;32;33711;-75
2022/10/23 01:33:10;;;;;;;21.77;15.50;;;;;;;11.77;77.88;100323.62;4439751;32;33537;-75
2022/10/23 01:35:53;;;;;;;23.85;16.75;;;;;;;12.28;76.11;100321.84;4453768;32;34953;-73
2022/10/23 01:38:24;;;;;;;24.17;16.05;;;;;;;11.92;78.07;100312.22;4439634;32;33986;-74
2022/10/23 01:40:57;;;;;;;21.65;15.93;;;;;;;11.78;78.85;100311.69;4439036;32;33807;-74
2022/10/23 01:43:41;;;;;;;25.08;16.45;;;;;;;11.68;80.05;100311.47;4439496;32;33840;-74
2022/10/23 01:46:13;;;;;;;23.62;16.45;;;;;;;11.79;79.15;100316.06;4439832;32;33971;-73
2022/10/23 01:48:45;;;;;;;25.90;15.75;;;;;;;11.68;79.75;100320.47;4439675;32;35083;-73
2022/10/23 01:51:13;;;;;;;21.50;15.32;;;;;;;11.70;79.97;100314.78;4452825;32;34069;-73
2022/10/23 01:53:42;;;;;;;22.48;15.50;;;;;;;11.72;80.02;100318.09;4439369;32;33580;-74
2022/10/23 01:56:13;;;;;;;23.92;15.65;;;;;;;11.94;78.61;100312.00;4439608;32;34769;-73
2022/10/23 01:58:46;;;;;;;22.65;14.75;;;;;;;11.94;78.60;100312.81;4440346;32;34038;-73
2022/10/23 02:01:15;;;;;;;22.87;15.68;;;;;;;12.11;78.02;100310.94;4438036;32;34480;-74
2022/10/23 02:03:45;;;;;;;25.35;16.50;;;;;;;12.11;77.55;100313.66;4450032;32;33511;-74
2022/10/23 02:06:13;;;;;;;21.33;14.77;;;;;;;12.34;76.22;100309.19;4468987;32;33611;-74
2022/10/23 02:08:40;;;;;;;22.73;15.52;;;;;;;12.37;75.66;100311.37;4455112;32;34282;-74
2022/10/23 02:11:18;;;;;;;19.52;14.13;;;;;;;12.41;75.13;100315.25;4454379;32;33637;-73
2022/10/23 02:14:10;;;;;;;20.65;14.43;;;;;;;12.15;76.23;100307.75;4452974;32;33436;-73
2022/10/23 02:16:53;;;;;;;19.10;13.90;;;;;;;12.14;76.59;100311.53;4452955;32;34924;-74
2022/10/23 02:20:05;;;;;;;19.35;13.90;;;;;;;12.28;75.69;100312.88;4438991;32;34940;-73
2022/10/23 02:22:42;;;;;;;20.30;13.93;;;;;;;12.40;74.28;100310.91;4417062;32;33830;-74
2022/10/23 02:25:13;;;;;;;21.90;13.90;;;;;;;12.18;74.72;100313.53;4438830;32;34402;-74
2022/10/23 02:27:45;;;;;;;19.40;14.15;;;;;;;12.18;74.86;100307.25;4439376;32;34730;-72
2022/10/23 02:30:15;;;;;;;21.42;14.18;;;;;;;12.13;74.84;100307.19;4438823;32;33743;-73
2022/10/23 02:32:48;;;;;;;20.80;13.90;;;;;;;11.97;75.37;100314.25;4453193;32;33743;-73
2022/10/23 02:35:17;;;;;;;20.67;14.10;;;;;;;12.23;74.20;100316.34;4438773;32;34177;-74
2022/10/23 02:37:53;;;;;;;20.85;14.20;;;;;;;12.18;73.96;100318.13;4438966;32;33967;-74
2022/10/23 02:40:29;;;;;;;21.65;14.87;;;;;;;11.83;75.55;100322.66;4452663;32;35214;-73
2022/10/23 02:42:57;;;;;;;;;;;;;;;11.61;76.90;100332.56;4439293;32;33879;-73
2022/10/23 02:45:32;;;;;;;20.92;13.52;;;;;;;12.17;74.24;100330.91;4438954;32;34221;-73
2022/10/23 02:48:08;;;;;;;18.73;14.00;;;;;;;12.35;73.35;100332.56;4452549;32;33869;-73
2022/10/23 02:50:59;;;;;;;21.80;13.93;;;;;;;12.01;74.54;100342.59;4436807;32;35031;-73
2022/10/23 02:53:48;;;;;;;22.50;14.20;;;;;;;12.07;74.66;100342.47;4423407;32;33834;-73
2022/10/23 02:56:22;;;;;;;20.65;13.95;;;;;;;11.95;75.23;100338.13;4435918;32;33355;-74
2022/10/23 02:58:55;;;;;;;;;;;;;;;12.09;74.34;100339.47;4423657;32;34919;-74
2022/10/23 03:01:27;;;;;;;21.25;14.55;;;;;;;12.09;74.27;100343.03;4436971;32;34265;-74
2022/10/23 03:03:59;;;;;;;22.35;14.27;;;;;;;11.61;76.35;100346.13;4450357;32;34023;-73
2022/10/23 03:06:27;;;;;;;20.73;14.48;;;;;;;11.63;76.07;100352.97;4468354;32;33646;-72
2022/10/23 03:09:03;;;;;;;20.80;13.98;;;;;;;12.00;74.93;100352.63;4467377;32;33948;-73
2022/10/23 03:11:31;;;;;;;19.23;13.75;;;;;;;11.95;74.61;100352.56;4453794;32;33690;-73
2022/10/23 03:13:58;;;;;;;18.35;12.95;;;;;;;11.93;75.25;100362.84;4470171;32;34449;-72
2022/10/23 03:16:26;;;;;;;21.27;14.45;;;;;;;11.56;75.73;100357.72;4461974;32;33445;-73
2022/10/23 03:18:54;;;;;;;21.30;14.35;;;;;;;11.86;75.86;100360.25;4454190;32;34837;-74
2022/10/23 03:21:22;;;;;;;22.70;15.02;;;;;;;11.96;75.96;100359.63;4454168;32;33805;-74
2022/10/23 03:23:50;;;;;;;23.48;14.48;;;;;;;11.76;76.39;100370.09;4453983;32;34554;-73
2022/10/23 03:26:18;;;;;;;21.15;14.38;;;;;;;11.94;76.36;100361.75;4454544;32;33629;-74
2022/10/23 03:28:46;;;;;;;21.85;14.70;;;;;;;11.88;76.46;100373.63;4454210;32;34115;-75
2022/10/23 03:31:14;;;;;;;20.42;14.73;;;;;;;11.87;77.07;100374.66;4453544;32;34077;-74
2022/10/23 03:33:42;;;;;;;19.50;14.48;;;;;;;11.81;77.28;100373.72;4452975;32;33990;-73
2022/10/23 03:36:10;;;;;;;20.52;14.50;;;;;;;11.92;77.06;100371.25;4453278;32;34595;-73
2022/10/23 03:38:39;;;;;;;26.70;16.05;;;;;;;11.71;77.75;100373.53;4439768;32;34675;-73
2022/10/23 03:41:06;;;;;;;20.60;13.73;;;;;;;11.65;78.29;100361.72;4439344;32;34184;-75
2022/10/23 03:43:34;;;;;;;21.12;14.05;;;;;;;11.83;77.81;100365.31;4454180;32;33924;-72
2022/10/23 03:46:01;;;;;;;21.37;14.80;;;;;;;12.00;77.25;100373.56;4454417;32;33563;-74
2022/10/23 03:48:29;;;;;;;19.52;14.35;;;;;;;11.85;77.41;100372.16;4453956;32;34728;-72
2022/10/23 03:50:57;;;;;;;21.08;14.07;;;;;;;11.80;77.25;100373.97;4453481;32;35004;-72
2022/10/23 03:53:24;;;;;;;24.00;14.45;;;;;;;11.99;76.33;100371.94;4440132;32;33711;-74
2022/10/23 03:55:53;;;;;;;22.25;14.52;;;;;;;12.14;75.44;100365.94;4466722;32;33684;-71
2022/10/23 03:58:21;;;;;;;23.23;14.82;;;;;;;12.37;74.38;100370.44;4469339;32;34056;-70
2022/10/23 04:00:48;;;;;;;20.85;14.60;;;;;;;12.10;75.00;100362.91;4469322;32;33885;-79
2022/10/23 04:03:16;;;;;;;20.45;14.32;;;;;;;12.01;75.23;100376.06;4469627;32;34421;-77
2022/10/23 04:05:43;;;;;;;20.70;13.40;;;;;;;12.15;74.79;100382.03;4469386;32;33432;-76
2022/10/23 04:08:10;;;;;;;21.58;13.88;;;;;;;12.10;74.62;100373.78;4438690;32;34034;-75
2022/10/23 04:10:43;;;;;;;20.58;13.98;;;;;;;11.96;74.91;100372.41;4452945;32;35197;-72
2022/10/23 04:13:11;;;;;;;21.40;13.98;;;;;;;12.01;74.45;100369.81;4453652;32;34722;-76
2022/10/23 04:15:38;;;;;;;20.37;14.05;;;;;;;11.96;74.39;100362.34;4454183;32;33588;-77
2022/10/23 04:18:06;;;;;;;19.50;14.05;;;;;;;11.83;74.86;100359.88;4453934;32;33788;-75
2022/10/23 04:20:33;;;;;;;21.45;13.75;;;;;;;11.85;74.80;100363.19;4453545;32;34923;-75
2022/10/23 04:23:01;;;;;;;21.48;13.55;;;;;;;11.95;74.29;100377.03;4452852;32;34266;-76
2022/10/23 04:25:28;;;;;;;20.20;13.77;;;;;;;11.89;74.46;100367.13;4453653;32;34185;-75
2022/10/23 04:27:56;;;;;;;19.20;13.52;;;;;;;11.75;74.75;100366.56;4453738;32;33728;-75
2022/10/23 04:30:23;;;;;;;22.20;14.90;;;;;;;11.66;74.45;100360.66;4453546;32;34821;-75
2022/10/23 04:32:51;;;;;;;21.12;15.18;;;;;;;11.78;74.19;100360.62;4453870;32;34624;-76
2022/10/23 04:35:38;;;;;;;22.52;14.65;;;;;;;11.78;74.53;100354.38;4439837;32;32967;-75
2022/10/23 04:38:05;;;;;;;23.30;14.70;;;;;;;11.66;75.16;100357.94;4453612;32;34047;-77
2022/10/23 04:40:33;;;;;;;23.23;15.00;;;;;;;11.41;75.71;100360.13;4454797;32;34767;-77
2022/10/23 04:43:01;;;;;;;20.10;14.13;;;;;;;11.54;75.55;100364.47;4469154;32;34724;-78
2022/10/23 04:45:30;;;;;;;19.83;14.18;;;;;;;11.63;74.97;100363.84;4468977;32;33780;-78
2022/10/23 04:47:58;;;;;;;20.30;13.40;;;;;;;11.48;75.84;100358.94;4467942;32;34019;-75
2022/10/23 04:50:35;;;;;;;20.90;14.20;;;;;;;11.24;77.09;100362.75;4441638;32;33739;-76
2022/10/23 04:53:04;;;;;;;21.33;13.90;;;;;;;11.08;77.71;100367.03;4453128;32;34764;-77
2022/10/23 04:55:32;;;;;;;21.08;14.10;;;;;;;11.42;76.98;100370.75;4453901;32;31861;-77
2022/10/23 04:58:02;;;;;;;22.55;14.38;;;;;;;11.33;76.98;100379.50;4453694;32;33933;-76
2022/10/23 05:00:31;;;;;;;19.00;13.00;;;;;;;11.35;77.12;100369.25;4452387;32;33815;-77
2022/10/23 05:03:00;;;;;;;20.73;13.75;;;;;;;11.25;77.21;100370.69;4438162;32;34045;-75
2022/10/23 05:05:29;;;;;;;18.75;12.63;;;;;;;11.26;76.20;100379.66;4437965;32;33491;-78
2022/10/23 05:07:57;;;;;;;17.00;12.13;;;;;;;11.42;75.79;100378.91;4439975;32;33764;-78
2022/10/23 05:10:25;;;;;;;17.02;12.37;;;;;;;11.83;73.09;100379.75;4453126;32;34980;-79
2022/10/23 05:12:53;;;;;;;20.40;13.43;;;;;;;11.19;75.15;100378.94;4453444;32;34775;-80
2022/10/23 05:15:20;;;;;;;19.40;12.88;;;;;;;11.02;75.07;100374.22;4453498;32;33802;-77
2022/10/23 05:17:52;;;;;;;17.17;11.85;;;;;;;10.97;75.16;100378.69;4454590;32;34474;-78
2022/10/23 05:20:22;;;;;;;17.05;12.60;;;;;;;11.03;74.85;100380.47;4469017;32;34192;-74
2022/10/23 05:22:51;;;;;;;17.77;12.25;;;;;;;11.19;73.45;100378.94;4448717;32;34073;-75
2022/10/23 05:25:19;;;;;;;19.73;13.23;;;;;;;11.06;73.62;100382.72;4454228;32;33316;-78
2022/10/23 05:27:47;;;;;;;18.90;12.98;;;;;;;11.44;71.27;100384.09;4454337;32;34926;-71
2022/10/23 05:30:15;;;;;;;19.92;13.27;;;;;;;11.05;72.72;100383.78;4454497;32;35054;-76
2022/10/23 05:32:42;;;;;;;18.73;13.88;;;;;;;10.74;74.25;100388.50;4454499;32;34018;-77
2022/10/23 05:35:15;;;;;;;19.70;13.13;;;;;;;10.76;73.95;100386.37;4440015;32;34377;-81
2022/10/23 05:37:46;;;;;;;21.15;14.93;;;;;;;10.43;74.78;100379.59;4454451;32;33852;-86
2022/10/23 05:40:14;;;;;;;20.85;14.27;;;;;;;9.72;78.00;100391.16;4440543;32;33976;-83
2022/10/23 05:42:41;;;;;;;22.30;15.13;;;;;;;9.84;77.95;100389.34;4454264;32;34698;-78
2022/10/23 05:45:10;;;;;;;19.92;14.57;;;;;;;10.51;75.23;100404.72;4454289;32;33646;-81
2022/10/23 05:47:38;;;;;;;22.73;14.60;;;;;;;10.67;74.23;100398.62;4454244;32;34000;-79
2022/10/23 05:50:06;;;;;;;21.92;14.65;;;;;;;11.00;72.33;100391.81;4451804;32;34152;-76
2022/10/23 05:52:36;;;;;;;25.33;16.00;;;;;;;11.05;72.08;100397.34;4454393;32;34704;-76
2022/10/23 05:55:04;;;;;;;22.95;15.18;;;;;;;11.24;71.59;100407.03;4454379;32;33036;-77
2022/10/23 05:57:35;;;;;;;23.77;16.77;;;;;;;10.98;73.44;100400.19;4454334;32;33766;-77
2022/10/23 06:00:04;;;;;;;22.42;15.80;;;;;;;11.07;73.43;100396.06;4453920;32;34161;-77
2022/10/23 06:02:39;;;;;;;23.25;15.73;;;;;;;10.98;74.35;100397.47;4440310;32;34818;-82
2022/10/23 06:05:08;;;;;;;22.25;15.10;;;;;;;11.20;73.80;100403.13;4454093;32;33573;-80
2022/10/23 06:07:37;;;;;;;22.02;15.18;;;;;;;10.86;75.69;100413.78;4453423;32;34096;-80
2022/10/23 06:10:05;;;;;;;19.75;14.75;;;;;;;11.21;75.06;100418.38;4452186;32;34869;-77
2022/10/23 06:12:33;;;;;;;22.60;14.18;;;;;;;11.41;74.45;100420.72;4452849;32;34757;-81
2022/10/23 06:15:01;;;;;;;21.83;14.55;;;;;;;11.06;76.06;100412.59;4453540;32;33821;-81
2022/10/23 06:17:30;;;;;;;20.48;14.48;;;;;;;11.11;76.59;100412.72;4452282;32;33854;-78
2022/10/23 06:20:01;;;;;;;18.75;13.98;;;;;;;11.41;76.17;100417.19;4453237;32;33886;-77
2022/10/23 06:22:29;;;;;;;22.98;15.65;;;;;;;11.57;76.69;100421.06;4452648;32;33286;-78
2022/10/23 06:24:58;;;;;;;22.75;14.55;;;;;;;11.76;78.01;100410.88;4452863;32;34098;-83
2022/10/23 06:27:26;;;;;;;18.80;13.77;;;;;;;12.32;76.65;100414.72;4454081;32;34869;-75
2022/10/23 06:29:54;;;;;;;19.75;13.70;;;;;;;13.21;73.52;100421.34;4453858;32;35055;-74
2022/10/23 06:32:21;;;;;;;19.87;13.93;;;;;;;13.73;70.46;100438.19;4453648;32;34807;-78
2022/10/23 06:34:49;;;;;;;17.75;12.63;;;;;;;14.67;66.29;100443.66;4439983;32;33409;-78
2022/10/23 06:37:17;;;;;;;17.60;12.02;;;;;;;15.15;64.47;100448.13;4453753;32;34044;-79
2022/10/23 06:39:45;;;;;;;15.23;10.70;;;;;;;15.65;63.74;100454.19;4453625;32;34143;-76
2022/10/23 06:42:12;;;;;;;14.87;10.77;;;;;;;16.00;62.67;100458.22;4449541;32;33734;-77
2022/10/23 06:44:45;;;;;;;16.12;10.40;;;;;;;16.27;61.24;100459.97;4453543;32;31870;-78
2022/10/23 06:47:15;;;;;;;16.48;10.70;;;;;;;16.07;61.53;100461.56;4454690;32;34874;-78
2022/10/23 06:49:54;;;;;;;13.45;10.25;;;;;;;16.02;62.58;100453.31;4454979;32;32566;-79
2022/10/23 06:52:22;;;;;;;12.73;9.85;;;;;;;15.88;63.87;100458.47;4455101;32;34279;-79
2022/10/23 06:55:09;;;;;;;15.07;10.60;;;;;;;16.17;63.13;100460.75;4455006;32;34534;-79
2022/10/23 06:57:37;;;;;;;16.25;10.80;;;;;;;16.43;62.07;100453.44;4455591;32;34137;-79
2022/10/23 07:00:06;;;;;;;13.38;9.70;;;;;;;16.58;62.13;100466.34;4455395;32;34413;-78
2022/10/23 07:02:35;;;;;;;15.02;10.02;;;;;;;16.61;62.67;100463.06;4454761;32;32728;-78
2022/10/23 07:05:03;;;;;;;14.02;10.25;;;;;;;16.23;63.96;100461.59;4454987;32;34511;-78
2022/10/23 07:07:30;;;;;;;17.00;10.00;;;;;;;16.94;62.81;100459.00;4455212;32;33696;-78
2022/10/23 07:09:58;;;;;;;14.15;10.13;;;;;;;17.19;63.10;100463.69;4454794;32;34123;-78
2022/10/23 07:12:27;;;;;;;12.68;8.98;;;;;;;17.62;62.42;100466.06;4454596;32;34126;-78
2022/10/23 07:14:54;;;;;;;9.27;6.53;;;;;;;17.83;62.35;100467.69;4455429;32;33842;-78
2022/10/23 07:17:22;;;;;;;9.82;7.00;;;;;;;17.76;62.99;100461.63;4455079;32;34789;-78
2022/10/23 07:19:50;;;;;;;10.57;7.03;;;;;;;17.48;64.95;100465.00;4455030;32;34249;-77
2022/10/23 07:22:17;;;;;;;9.75;6.60;;;;;;;17.60;63.68;100469.09;4454576;32;33892;-78
2022/10/23 07:24:44;;;;;;;8.93;6.35;;;;;;;17.98;63.04;100471.47;4454504;32;34308;-78
2022/10/23 07:27:13;;;;;;;9.77;5.65;;;;;;;18.14;61.76;100470.31;4441000;32;35346;-79
2022/10/23 07:29:40;;;;;;;8.43;5.60;;;;;;;18.00;62.39;100467.34;4453459;32;33999;-81
2022/10/23 07:32:08;;;;;;;8.07;5.82;;;;;;;18.04;62.41;100473.91;4454559;32;33882;-80
2022/10/23 07:34:41;;;;;;;8.60;6.30;;;;;;;17.42;66.14;100465.00;4455030;32;32118;-77
2022/10/23 07:37:09;;;;;;;9.38;6.30;;;;;;;17.52;66.74;100455.94;4455262;32;34776;-78
2022/10/23 07:39:38;;;;;;;12.73;8.98;;;;;;;17.66;66.59;100458.91;4454662;32;33975;-78
2022/10/23 07:42:05;;;;;;;11.52;8.05;;;;;;;17.50;64.25;100454.59;4454296;32;35016;-80
2022/10/23 07:44:34;;;;;;;12.18;8.15;;;;;;;17.06;66.01;100453.25;4454712;32;34615;-78
2022/10/23 07:47:01;;;;;;;13.77;9.32;;;;;;;16.50;67.64;100453.16;4455229;32;33849;-78
2022/10/23 07:49:29;;;;;;;13.57;9.23;;;;;;;16.56;68.72;100455.66;4455132;32;34174;-79
2022/10/23 07:51:57;;;;;;;12.60;8.68;;;;;;;17.46;66.05;100465.28;4454616;32;34000;-80
2022/10/23 07:54:27;;;;;;;12.23;8.40;;;;;;;17.86;65.41;100462.72;4454817;32;33414;-78
2022/10/23 07:57:00;;;;;;;12.18;8.10;;;;;;;17.31;65.34;100459.81;4454550;32;34076;-80
2022/10/23 07:59:28;;;;;;;10.43;7.90;;;;;;;17.46;63.77;100454.31;4454580;32;34299;-80
2022/10/23 08:01:59;;;;;;;11.25;7.53;;;;;;;17.57;64.11;100453.19;4454766;32;33637;-79
2022/10/23 08:04:28;;;;;;;13.00;7.82;;;;;;;16.95;65.33;100446.13;4454056;32;32996;-78
2022/10/23 08:06:55;;;;;;;11.90;7.65;;;;;;;16.75;66.50;100450.47;4454298;32;34737;-78
2022/10/23 08:09:23;;;;;;;10.73;7.35;;;;;;;16.86;67.37;100450.50;4453770;32;35101;-78
2022/10/23 08:11:51;;;;;;;11.55;7.25;;;;;;;16.79;68.16;100448.00;4454721;32;34889;-79
2022/10/23 08:14:18;;;;;;;10.88;7.07;;;;;;;16.93;66.29;100445.56;4440298;32;33351;-80
2022/10/23 08:16:46;;;;;;;9.93;6.90;;;;;;;18.06;62.90;100453.63;4454397;32;34086;-79
2022/10/23 08:19:18;;;;;;;9.05;6.75;;;;;;;18.64;60.13;100446.41;4428359;32;34220;-78
2022/10/23 08:21:45;;;;;;;8.82;5.72;;;;;;;18.55;61.73;100452.78;4468630;32;33924;-76
2022/10/23 08:24:13;;;;;;;7.68;5.70;;;;;;;18.99;59.89;100449.19;4469062;32;33422;-80
2022/10/23 08:26:40;;;;;;;7.60;5.40;;;;;;;18.57;61.36;100453.31;4469949;32;33644;-78
2022/10/23 08:29:08;;;;;;;7.62;6.00;;;;;;;18.80;61.39;100438.06;4470198;32;33783;-77
2022/10/23 08:31:36;;;;;;;9.07;6.40;;;;;;;18.11;62.41;100448.09;4470175;32;34834;-81
2022/10/23 08:34:07;;;;;;;9.88;6.12;;;;;;;19.06;60.16;100452.44;4469767;32;33206;-79
2022/10/23 08:36:35;;;;;;;11.10;6.65;;;;;;;19.00;59.90;100459.06;4469646;32;34716;-82
2022/10/23 08:39:03;;;;;;;8.10;5.53;;;;;;;19.32;60.45;100455.75;4469850;32;34139;-76
2022/10/23 08:41:42;;;;;;;12.45;8.65;;;;;;;19.68;59.54;100447.16;4470079;32;34540;-78
2022/10/23 08:44:25;;;;;;;11.40;8.00;;;;;;;19.05;60.76;100450.81;4405231;32;33244;-82
2022/10/23 08:47:14;;;;;;;10.48;7.53;;;;;;;19.33;59.96;100442.81;4424820;32;34684;-77
2022/10/23 08:49:51;;;;;;;11.60;8.32;;;;;;;19.33;59.62;100438.16;4425153;32;33789;-79
2022/10/23 08:52:25;;;;;;;12.02;8.15;;;;;;;19.72;57.82;100430.88;4440609;32;34895;-77
2022/10/23 08:54:56;;;;;;;12.13;8.20;;;;;;;20.44;56.46;100439.03;4439989;32;33522;-74
2022/10/23 08:57:32;;;;;;;13.62;8.35;;;;;;;20.49;55.20;100436.19;4439997;32;33991;-77
2022/10/23 09:00:13;;;;;;;12.48;8.50;;;;;;;20.44;55.65;100428.81;4440457;32;35128;-74
2022/10/23 09:02:47;;;;;;;12.10;8.35;;;;;;;20.71;54.49;100434.78;4439843;32;33912;-74
2022/10/23 09:05:16;;;;;;;12.00;8.60;;;;;;;20.83;54.82;100437.91;4453839;32;33295;-73
2022/10/23 09:07:49;;;;;;;11.15;7.85;;;;;;;20.13;55.84;100439.47;4453519;32;34030;-74
2022/10/23 09:10:35;;;;;;;9.48;7.22;;;;;;;19.59;57.03;100435.12;4453754;32;33984;-76
2022/10/23 09:13:23;;;;;;;10.80;7.95;;;;;;;19.83;57.73;100430.47;4454143;32;33855;-74
2022/10/23 09:16:03;;;;;;;9.13;7.03;;;;;;;20.24;57.07;100438.22;4452042;32;34453;-76
2022/10/23 09:18:31;;;;;;;9.50;6.87;;;;;;;20.86;54.97;100434.53;4440327;32;34640;-75
2022/10/23 09:20:59;;;;;;;9.88;7.05;;;;;;;20.71;55.92;100435.59;4454294;32;33944;-75
2022/10/23 09:23:26;;;;;;;9.73;6.45;;;;;;;20.82;55.79;100450.91;4454013;32;34739;-76
2022/10/23 09:25:55;;;;;;;9.07;6.32;;;;;;;21.01;54.80;100459.12;4453877;32;33500;-76
2022/10/23 09:28:24;;;;;;;9.20;6.35;;;;;;;21.25;53.90;100460.91;4454154;32;33822;-77
2022/10/23 09:30:52;;;;;;;8.00;6.05;;;;;;;20.38;55.98;100465.03;4454300;32;34955;-76
2022/10/23 09:33:20;;;;;;;7.28;5.32;;;;;;;20.73;53.42;100460.13;4440247;32;34644;-76
2022/10/23 09:35:57;;;;;;;6.70;4.68;;;;;;;21.00;53.59;100463.00;4453832;32;33463;-76
2022/10/23 09:38:32;;;;;;;5.95;4.15;;;;;;;20.72;51.40;100458.50;4439328;32;33914;-77
2022/10/23 09:41:06;;;;;;;6.28;4.12;;;;;;;20.63;52.86;100461.94;4454008;32;34294;-76
2022/10/23 09:43:34;;;;;;;6.97;4.15;;;;;;;20.28;53.65;100454.97;4453312;32;34583;-76
2022/10/23 09:46:04;;;;;;;6.57;4.30;;;;;;;20.65;52.82;100450.63;4454160;32;33336;-78
2022/10/23 09:48:33;;;;;;;4.60;3.90;;;;;;;20.77;53.29;100455.66;4440271;32;33906;-77
2022/10/23 09:51:15;;;;;;;7.10;3.92;;;;;;;21.24;51.26;100460.13;4453807;32;34065;-76
2022/10/23 09:53:52;;;;;;;5.55;4.00;;;;;;;21.27;52.47;100454.00;4453462;32;34644;-79
2022/10/23 09:56:26;;;;;;;6.55;4.70;;;;;;;21.54;50.99;100454.37;4440075;32;34268;-78
2022/10/23 09:59:12;;;;;;;6.28;4.90;;;;;;;21.14;52.38;100452.00;4450051;32;34673;-76
2022/10/23 10:01:49;;;;;;;6.03;4.75;;;;;;;21.78;50.42;100455.00;4440362;32;34278;-75
2022/10/23 10:04:18;;;;;;;6.18;4.30;;;;;;;21.51;51.65;100447.50;4437260;32;33939;-75
2022/10/23 10:06:45;;;;;;;7.03;4.68;;;;;;;21.44;51.77;100447.09;4435693;32;33889;-77
2022/10/23 10:09:14;;;;;;;7.30;4.72;;;;;;;21.42;51.15;100452.09;4422660;32;33995;-75
2022/10/23 10:11:49;;;;;;;6.55;4.78;;;;;;;21.53;51.47;100449.97;4422189;32;33917;-75
2022/10/23 10:14:39;;;;;;;6.60;5.37;;;;;;;21.09;52.76;100452.09;4422799;32;33898;-78
2022/10/23 10:17:19;;;;;;;6.90;4.60;;;;;;;21.19;52.79;100446.41;4436545;32;33688;-76
2022/10/23 10:20:08;;;;;;;6.40;4.47;;;;;;;21.38;51.29;100449.12;4423441;32;33526;-77
2022/10/23 10:22:42;;;;;;;6.60;4.62;;;;;;;20.46;54.38;100439.56;4435162;32;35098;-77
2022/10/23 10:25:16;;;;;;;7.40;5.25;;;;;;;20.49;54.33;100439.75;4436261;32;34444;-77
2022/10/23 10:27:54;;;;;;;9.52;5.78;;;;;;;20.97;53.89;100435.19;4422657;32;34382;-77
2022/10/23 10:30:23;;;;;;;7.75;5.57;;;;;;;20.88;53.65;100432.31;4422523;32;34017;-75
2022/10/23 10:32:53;;;;;;;8.63;5.90;;;;;;;20.84;54.76;100425.75;4437003;32;33953;-76
2022/10/23 10:35:36;;;;;;;9.30;6.22;;;;;;;20.07;56.41;100424.94;4422650;32;34664;-77
2022/10/23 10:38:34;;;;;;;9.25;6.32;;;;;;;20.69;55.05;100432.31;4422264;32;34192;-76
2022/10/23 10:41:20;;;;;;;10.70;7.20;;;;;;;20.46;55.49;100428.53;4436889;32;33761;-77
2022/10/23 10:44:07;;;;;;;16.17;9.70;;;;;;;21.08;53.73;100420.94;4436567;32;35184;-75
2022/10/23 10:46:45;;;;;;;16.48;10.85;;;;;;;20.36;55.27;100412.12;4436081;32;34369;-77
2022/10/23 10:49:18;;;;;;;17.45;12.07;;;;;;;19.67;56.96;100405.03;4436542;32;34464;-77
2022/10/23 10:51:56;;;;;;;26.12;15.13;;;;;;;19.51;58.68;100408.25;4424501;32;34049;-76
2022/10/23 10:54:29;;;;;;;26.58;15.27;;;;;;;20.13;56.96;100397.31;4438237;32;33705;-77
2022/10/23 10:56:59;;;;;;;33.03;17.87;;;;;;;20.52;56.71;100398.94;4452051;32;33904;-75
2022/10/23 10:59:33;;;;;;;29.37;17.17;;;;;;;20.25;56.93;100390.22;4450694;32;34198;-75
2022/10/23 11:02:26;;;;;;;33.00;18.42;;;;;;;19.29;58.90;100390.31;4437535;32;34021;-79
2022/10/23 11:05:12;;;;;;;31.25;16.83;;;;;;;19.99;57.32;100380.69;4437779;32;34319;-75
2022/10/23 11:07:42;;;;;;;32.25;18.17;;;;;;;20.13;57.74;100381.62;4451060;32;34929;-77
2022/10/23 11:10:16;;;;;;;32.63;17.95;;;;;;;20.41;56.58;100373.47;4437836;32;33599;-79
2022/10/23 11:12:47;;;;;;;32.72;18.42;;;;;;;20.76;55.93;100371.31;4437882;32;33912;-77
2022/10/23 11:15:17;;;;;;;35.03;18.33;;;;;;;20.93;55.11;100368.78;4436878;32;35144;-78
2022/10/23 11:17:49;;;;;;;29.27;16.55;;;;;;;20.43;56.14;100373.97;4437617;32;33731;-78
2022/10/23 11:20:33;;;;;;;29.50;17.73;;;;;;;20.22;56.88;100373.50;4436991;32;33537;-76
2022/10/23 11:23:38;;;;;;;23.23;15.43;;;;;;;19.98;57.80;100376.31;4437067;32;34036;-76
2022/10/23 11:26:22;;;;;;;21.10;14.10;;;;;;;19.88;57.80;100369.81;4451354;32;34942;-77
2022/10/23 11:29:04;;;;;;;19.30;11.38;;;;;;;20.80;55.45;100375.06;4451446;32;33880;-75
2022/10/23 11:31:35;;;;;;;15.00;10.00;;;;;;;21.09;54.40;100370.13;4450865;32;33258;-74
2022/10/23 11:34:15;;;;;;;13.23;9.15;;;;;;;20.72;54.73;100378.53;4453127;32;34837;-74
2022/10/23 11:36:49;;;;;;;11.85;8.00;;;;;;;21.06;54.00;100384.56;4439435;32;34307;-76